Aérodrome :
LOGIN :

S'inscrire | Disclaimer

   EN    FR    IT 

 










Légende :    VFR   VFR Marginal   IFR   IFR Intensif   IFR Très Intensif
Visi : 
Plafond : 
>= 8 km
>= 3000ft
5 à 8 km
1000 à 3000 ft
1500m à 5 km
500 à 1000 ft
800 à 1500m
200 à 500 ft
< 800m
< 200 ft
Symboles :   Orages  Brouillard  Fortes neiges  Fortes précipitations  Vent > 20 kt
SIGMETs :   Divers  Orages  Givrage  Turbulence  Onde Orograph.  Cendres Volcan.







- Altitude de l'aérodrome : 100 ft


EBDT - Schaffen

DERNIER METAR :
  • 170455Z 21003KT 7000 SCT010 BKN150 05/04 Q1003 GRN

METARs EXPIRÉS :
  • 170452Z 21003KT 7000 SCT010 BKN140 05/04 Q1003 GRN
  • 170425Z AUTO 24005KT 7000 FEW010/// BKN140/// 05/04 Q1003 WHT
  • 170355Z AUTO 24006KT 9000 SCT009/// BKN012/// BKN140/// 05/04 Q1003 GRN
  • 170325Z AUTO 24005KT 9999 SCT007/// BKN009/// BKN011/// 05/05 Q1003 GRN
  • 170255Z AUTO 25006KT 9999 SCT008/// BKN010/// OVC035/// 05/05 Q1003 GRN
  • 170243Z AUTO 25006KT 9999 FEW006/// BKN009/// OVC037/// 05/05 Q1003 GRN
  • 170225Z AUTO 24005KT 9999 SCT006/// BKN009/// BKN035/// 06/05 Q1003 YLO
  • 170212Z AUTO 24005KT 6000 -DZ SCT006/// BKN015/// BKN020/// 05/05 Q1003 YLO

Prévision TAF périmée.
Pas de NOTAMs connus pour ce terrain.



MET'MAP, la Météo Aéronautique d'un coup d'oeil ! - Copyright ORBIFLY Décembre 2007 - Disclaimer

ORBIFLY MET'MAP TEAM :

Programmation & Développement : Alexandra Zaïnal
Conception & Développement : Baudouin d'Aumeries
Co-Programmation & Développement : Marc-Olivier Méhu
Soutien technique & logistique : Manuel Goepfert

Contact : metmap@orbifly.com




SOURCES & CREDITS :

   NOAA